• Join FlightAware (Why Join?)
  • Login
  • US Flag 
02:01PM EDT


 

Airport Tracker/Info


-or-


 

Live Flight TrackerFlight Track Log ✈ AWE3874 ✈ 18-May-2014 ✈ KORF - KDCA

Flight Track Log - Related Links

Times and Time Zones

All times are in EDT time to prevent confusion due to time zone crossing. See the AWE3874 flight status page for this flight to view local times or setup timezone preferences in your user account.

Time Position Orientation Groundspeed Altitude Reporting Facility
EDT Latitude Longitude Course Direction KTS MPH feet Rate Location/Type
07:09AM 36.8803 -76.2136 300° West 167 192 700  Level Washington Center
07:09AM 36.8767 -76.2178 223° Southwest 170 196 1,000 1,680 Climbing Washington Center
07:10AM 36.8439 -76.2614 227° Southwest 184 212 2,900 1,800 Climbing Washington Center
07:11AM 36.8803 -76.3236 306° West 222 255 4,700 2,100 Climbing Washington Center
07:12AM 36.9945 -76.4223 302° West  Level FlightAware Approximate
07:12AM 36.9267 -76.3931 310° West 251 289 7,200  Level Washington Center
07:13AM 37.0359 -76.4923 300° West  Level FlightAware Approximate
07:13AM 36.9764 -76.4833 305° West 259 298 10,000  Level Washington Center
07:14AM 37.0709 -76.5692 300° West  Level FlightAware Approximate
07:14AM 37.0181 -76.5578 305° West 261 300 11,600  Level Washington Center
07:15AM 37.0622 -76.6389 304° West 278 320 11,900 120 Climbing Washington Center
07:16AM 37.1125 -76.7267 306° West 305 351 11,900  Level Washington Center
07:17AM 37.1606 -76.8108 306° West 299 344 11,900  Level Washington Center
07:18AM 37.2053 -76.8911 305° West 286 329 11,900  Level Washington Center
07:19AM 37.2506 -76.9742 304° West 276 318 12,000  Climbing Washington Center
07:20AM 37.2939 -77.0519 305° West 271 312 12,000  Level Washington Center
07:21AM 37.3386 -77.1278 307° West 271 312 12,000  Level Washington Center
07:22AM 37.3950 -77.1939 317° Northwest 274 315 12,000  Level Washington Center
07:24AM 37.4561 -77.2525 323° Northwest 279 321 12,000  Level Washington Center
07:25AM 37.5564 -77.2450 North 299 344 12,000  Level Washington Center
07:26AM 37.6394 -77.2347 North 299 344 12,000  Level Washington Center
07:27AM 37.7231 -77.2250 North 299 344 12,000  Level Washington Center
07:28AM 37.8072 -77.2150 North 300 345 12,000  Level Washington Center
07:29AM 37.8922 -77.2050 North 304 350 12,000 -480 Level Washington Center
07:30AM 37.9775 -77.1953 North 307 353 11,000 -1,020 Descending Washington Center
07:31AM 38.0656 -77.1850 North 298 343 10,000 -540 Descending Washington Center
07:32AM 38.1489 -77.1756 North 298 343 10,000  Level Washington Center
07:33AM 38.2414 -77.1628 North 300 345 10,000 -420 Level Washington Center
07:34AM 38.3111 -77.1433 12° North 291 335 9,200 -1,320 Descending Washington Center
07:35AM 38.3908 -77.1278 North 291 335 7,400 -2,040 Descending Washington Center
07:36AM 38.4839 -77.1128 North 287 330 5,200 -1,680 Descending Washington Center
07:37AM 38.5558 -77.0917 13° North 272 313 4,000 -840 Descending Washington Center
07:38AM 38.6144 -77.0736 14° North 224 258 3,600 -660 Descending Washington Center
07:38AM 38.6500 -77.0667 North 203 234 3,000 -780 Descending Potomac TRACON
07:39AM 38.7000 -77.0500 15° North 191 220 2,500 -600 Descending Potomac TRACON
07:40AM 38.7333 -77.0333 21° North 160 184 2,000 -720 Descending Potomac TRACON
07:41AM 38.7667 -77.0333 360° North 156 180 1,300 -780 Descending Potomac TRACON
07:42AM 38.8000 -77.0333 360° North 134 154 700 -720 Descending Potomac TRACON